Argo Village, New York
Current Conditions -  °F | °C
As of 6:51 AM on Thursday 27 Nov 2014 (Local Time) from KJFK Reporting Station
Overcast Overcast  
Wind Chill: 31°   Ceiling: 3500
Heat Index: 38°   Visibility: 10mi
Dew Point: 30°   Wind: 9mph
Humidity: 73%   Direction: 320°NW
Pressure: 29.97"   Gusts: NA
Location:  40.7013°N, 73.7074°W
Report Text: KJFK 271151Z 32008KT 10SM FEW022 OVC035 03/M01 A2997 RMK AO2 SLP150 60000 70101 T00331011 10033 20022 53016 $
Loading
Personal Weather Stations






























Interactive Weather Map New forecast layout! Learn more

10-Day Weather Forecast

Advertisements
Track Severe Weather on mobile